createdAt,value
2017-06-18T00:02:16.988Z,99.90
2017-06-18T00:04:45.314Z,99.90
2017-06-18T00:07:14.027Z,99.90
2017-06-18T00:09:43.087Z,99.90
2017-06-18T00:12:11.494Z,99.90
2017-06-18T00:14:40.683Z,99.90
2017-06-18T00:17:09.080Z,99.90
2017-06-18T00:19:38.072Z,99.90
2017-06-18T00:22:06.396Z,99.90
2017-06-18T00:24:34.930Z,99.80
2017-06-18T00:27:03.411Z,99.80
2017-06-18T00:29:32.605Z,99.80
2017-06-18T00:32:00.915Z,99.70
2017-06-18T00:34:29.242Z,99.80
2017-06-18T00:36:58.375Z,99.70
2017-06-18T00:39:26.729Z,99.70
2017-06-18T00:41:55.827Z,99.50
2017-06-18T00:44:25.023Z,99.50
2017-06-18T00:46:54.121Z,99.60
2017-06-18T00:49:23.214Z,99.60
2017-06-18T00:51:51.594Z,99.60
2017-06-18T00:54:19.950Z,99.60
2017-06-18T00:56:49.045Z,99.70
2017-06-18T00:59:17.431Z,99.70
2017-06-18T01:01:46.522Z,99.80
2017-06-18T01:04:15.592Z,99.80
2017-06-18T01:06:43.950Z,99.80
2017-06-18T01:09:12.263Z,99.70
2017-06-18T01:11:41.798Z,99.70
2017-06-18T01:14:11.335Z,99.70
2017-06-18T01:16:39.638Z,99.90
2017-06-18T01:19:08.462Z,99.90
2017-06-18T01:21:37.523Z,99.80
2017-06-18T01:24:05.839Z,99.80
2017-06-18T01:26:34.512Z,99.70
2017-06-18T01:29:03.602Z,99.50
2017-06-18T01:31:32.706Z,99.40
2017-06-18T01:34:01.209Z,99.40
2017-06-18T01:36:29.520Z,99.50
2017-06-18T01:38:57.834Z,99.60
2017-06-18T01:41:26.179Z,99.70
2017-06-18T01:43:55.406Z,99.90
2017-06-18T01:46:24.676Z,99.90
2017-06-18T01:48:53.086Z,99.80
2017-06-18T01:51:23.003Z,99.90
2017-06-18T01:53:52.147Z,99.90
2017-06-18T01:56:20.587Z,99.90
2017-06-18T01:58:48.962Z,99.90
2017-06-18T02:01:17.303Z,99.90
2017-06-18T02:03:46.431Z,99.90
2017-06-18T02:06:14.805Z,99.90
2017-06-18T02:08:43.911Z,99.90
2017-06-18T02:11:12.276Z,99.90
2017-06-18T02:13:41.471Z,99.90
2017-06-18T02:16:10.548Z,99.90
2017-06-18T02:18:39.049Z,99.90
2017-06-18T02:21:08.122Z,99.90
2017-06-18T02:23:36.522Z,99.90
2017-06-18T02:26:05.627Z,99.90
2017-06-18T02:28:33.998Z,99.90
2017-06-18T02:31:03.088Z,99.90
2017-06-18T02:33:32.159Z,99.90
2017-06-18T02:36:00.968Z,99.90
2017-06-18T02:38:29.263Z,99.90
2017-06-18T02:40:57.652Z,99.90
2017-06-18T02:43:26.038Z,99.90
2017-06-18T02:45:54.710Z,99.90
2017-06-18T02:48:23.078Z,99.90
2017-06-18T02:50:51.443Z,99.90
2017-06-18T02:53:20.551Z,99.90
2017-06-18T02:55:48.931Z,99.90
2017-06-18T02:58:17.230Z,99.90
2017-06-18T03:00:45.581Z,99.90
2017-06-18T03:03:14.423Z,99.90
2017-06-18T03:05:42.735Z,99.90
2017-06-18T03:08:11.115Z,99.90
2017-06-18T03:10:40.218Z,99.90
2017-06-18T03:13:09.302Z,99.90
2017-06-18T03:15:37.991Z,99.90
2017-06-18T03:18:06.365Z,99.90
2017-06-18T03:20:35.431Z,99.90
2017-06-18T03:23:09.360Z,99.90
2017-06-18T03:25:37.813Z,99.90
2017-06-18T03:28:06.117Z,99.90
2017-06-18T03:30:35.228Z,99.90
2017-06-18T03:33:04.312Z,99.90
2017-06-18T03:35:32.695Z,99.90
2017-06-18T03:38:01.035Z,99.90
2017-06-18T03:40:29.446Z,99.90
2017-06-18T03:42:58.542Z,99.90
2017-06-18T03:45:26.923Z,99.90
2017-06-18T03:47:56.112Z,99.90
2017-06-18T03:50:25.192Z,99.90
2017-06-18T03:52:53.476Z,99.90
2017-06-18T03:55:21.835Z,99.90
2017-06-18T03:57:50.242Z,99.90
2017-06-18T04:00:19.352Z,99.90
2017-06-18T04:02:47.674Z,99.90
2017-06-18T04:05:16.016Z,99.90
2017-06-18T04:10:18.174Z,99.90
2017-06-18T04:12:46.551Z,99.90
2017-06-18T04:15:15.627Z,99.90
2017-06-18T04:17:44.036Z,99.90
2017-06-18T04:20:13.130Z,99.90
2017-06-18T04:22:41.436Z,99.90
2017-06-18T04:25:09.766Z,99.90
2017-06-18T04:27:38.839Z,99.90
2017-06-18T04:30:07.140Z,99.90
2017-06-18T04:32:36.342Z,99.90
2017-06-18T04:35:06.323Z,99.90
2017-06-18T04:37:34.664Z,99.90
2017-06-18T04:40:03.015Z,99.90
2017-06-18T04:42:31.390Z,99.90
2017-06-18T04:44:59.731Z,99.90
2017-06-18T04:47:28.253Z,99.90
2017-06-18T04:49:57.371Z,99.90
2017-06-18T04:52:25.683Z,99.90
2017-06-18T04:54:54.109Z,99.90
2017-06-18T04:57:23.294Z,99.90
2017-06-18T04:59:52.403Z,99.90
2017-06-18T05:02:20.777Z,99.90
2017-06-18T05:04:49.080Z,99.90
2017-06-18T05:07:17.423Z,99.90
2017-06-18T05:09:46.499Z,99.90
2017-06-18T05:12:14.827Z,99.90
2017-06-18T05:14:43.387Z,99.90
2017-06-18T05:17:11.674Z,99.90
2017-06-18T05:19:40.052Z,99.90
2017-06-18T05:22:08.421Z,99.90
2017-06-18T05:24:36.783Z,99.90
2017-06-18T05:27:05.895Z,99.90
2017-06-18T05:29:34.372Z,99.90
2017-06-18T05:32:03.451Z,99.90
2017-06-18T05:34:32.550Z,99.60
2017-06-18T05:37:00.967Z,99.50
2017-06-18T05:39:29.331Z,99.40
2017-06-18T05:41:57.695Z,98.80
2017-06-18T05:44:26.085Z,98.40
2017-06-18T05:46:54.391Z,97.90
2017-06-18T05:49:22.710Z,97.30
2017-06-18T05:51:51.822Z,97.20
2017-06-18T05:54:20.198Z,97.10
2017-06-18T05:56:48.566Z,97.00
2017-06-18T05:59:17.642Z,97.70
2017-06-18T06:01:45.963Z,97.60
2017-06-18T06:04:14.266Z,97.60
2017-06-18T06:06:42.611Z,97.50
2017-06-18T06:09:10.973Z,97.50
2017-06-18T06:11:40.069Z,96.90
2017-06-18T06:14:08.572Z,96.90
2017-06-18T06:16:36.881Z,97.00
2017-06-18T06:19:05.215Z,97.20
2017-06-18T06:21:34.267Z,96.90
2017-06-18T06:24:02.673Z,96.90
2017-06-18T06:26:31.161Z,97.10
2017-06-18T06:29:00.447Z,97.10
2017-06-18T06:31:29.555Z,96.80
2017-06-18T06:33:58.655Z,96.30
2017-06-18T06:36:27.030Z,96.30
2017-06-18T06:38:55.397Z,95.80
2017-06-18T06:41:23.805Z,96.20
2017-06-18T06:43:52.114Z,96.00
2017-06-18T06:46:21.222Z,96.20
2017-06-18T06:48:49.620Z,96.10
2017-06-18T06:51:18.719Z,95.90
2017-06-18T06:53:47.789Z,95.90
2017-06-18T06:56:16.196Z,95.90
2017-06-18T06:58:44.575Z,95.50
2017-06-18T07:01:13.659Z,94.40
2017-06-18T07:03:42.735Z,94.20
2017-06-18T07:06:11.136Z,94.20
2017-06-18T07:08:39.623Z,93.90
2017-06-18T07:11:08.001Z,94.20
2017-06-18T07:13:37.202Z,93.40
2017-06-18T07:16:05.518Z,93.40
2017-06-18T07:18:33.950Z,92.90
2017-06-18T07:21:03.017Z,92.80
2017-06-18T07:23:31.338Z,92.80
2017-06-18T07:25:59.647Z,93.30
2017-06-18T07:28:28.687Z,92.90
2017-06-18T07:30:57.789Z,92.30
2017-06-18T07:33:26.886Z,91.60
2017-06-18T07:35:55.983Z,90.90
2017-06-18T07:38:24.354Z,90.90
2017-06-18T07:40:53.550Z,91.90
2017-06-18T07:43:22.638Z,91.40
2017-06-18T07:45:51.737Z,90.90
2017-06-18T07:48:21.057Z,90.80
2017-06-18T07:50:49.406Z,90.20
2017-06-18T07:53:18.481Z,90.30
2017-06-18T07:55:46.883Z,90.30
2017-06-18T07:58:16.099Z,88.90
2017-06-18T08:00:45.182Z,89.70
2017-06-18T08:03:13.537Z,89.50
2017-06-18T08:05:42.172Z,89.70
2017-06-18T08:08:10.470Z,90.00
2017-06-18T08:10:38.827Z,89.40
2017-06-18T08:13:07.183Z,89.50
2017-06-18T08:15:35.545Z,88.20
2017-06-18T08:18:04.632Z,88.60
2017-06-18T08:20:33.848Z,88.70
2017-06-18T08:23:03.049Z,89.80
2017-06-18T08:25:31.530Z,89.80
2017-06-18T08:27:59.832Z,89.00
2017-06-18T08:30:28.191Z,88.30
2017-06-18T08:32:56.515Z,87.60
2017-06-18T08:35:24.831Z,88.20
2017-06-18T08:37:53.941Z,90.10
2017-06-18T08:40:22.996Z,89.40
2017-06-18T08:42:51.340Z,89.30
2017-06-18T08:45:20.148Z,88.60
2017-06-18T08:47:48.463Z,87.90
2017-06-18T08:50:17.546Z,87.60
2017-06-18T08:52:45.937Z,87.20
2017-06-18T08:55:14.275Z,85.70
2017-06-18T08:57:43.418Z,86.60
2017-06-18T09:00:11.760Z,86.60
2017-06-18T09:02:40.164Z,88.20
2017-06-18T09:05:08.518Z,88.80
2017-06-18T09:07:36.839Z,88.10
2017-06-18T09:10:05.147Z,86.80
2017-06-18T09:12:33.473Z,86.10
2017-06-18T09:15:02.538Z,88.00
2017-06-18T09:17:30.879Z,87.10
2017-06-18T09:19:59.201Z,88.40
2017-06-18T09:22:27.497Z,87.70
2017-06-18T09:24:56.999Z,85.90
2017-06-18T09:27:25.392Z,84.90
2017-06-18T09:29:53.712Z,85.60
2017-06-18T09:32:21.995Z,85.20
2017-06-18T09:34:50.411Z,84.50
2017-06-18T09:37:18.726Z,84.50
2017-06-18T09:39:47.075Z,83.80
2017-06-18T09:42:15.400Z,83.40
2017-06-18T09:44:44.334Z,83.60
2017-06-18T09:47:13.544Z,83.10
2017-06-18T09:49:42.632Z,83.10
2017-06-18T09:52:11.924Z,82.10
2017-06-18T09:54:40.312Z,82.10
2017-06-18T09:57:08.618Z,82.40
2017-06-18T09:59:36.975Z,80.80
2017-06-18T10:02:05.320Z,81.30
2017-06-18T10:04:34.024Z,79.60
2017-06-18T10:07:02.351Z,80.20
2017-06-18T10:09:30.677Z,79.30
2017-06-18T10:11:59.069Z,77.70
2017-06-18T10:14:27.482Z,74.80
2017-06-18T10:16:56.016Z,74.20
2017-06-18T10:19:24.327Z,75.30
2017-06-18T10:21:58.614Z,75.30
2017-06-18T10:24:26.988Z,74.70
2017-06-18T10:26:55.315Z,76.40
2017-06-18T10:29:23.636Z,75.40
2017-06-18T10:31:52.011Z,75.80
2017-06-18T10:34:20.802Z,75.50
2017-06-18T10:36:49.179Z,74.30
2017-06-18T10:39:17.683Z,73.60
2017-06-18T10:41:46.243Z,73.00
2017-06-18T10:44:14.569Z,73.10
2017-06-18T10:46:42.903Z,70.60
2017-06-18T10:49:12.091Z,71.70
2017-06-18T10:51:40.402Z,71.70
2017-06-18T10:54:08.740Z,73.00
2017-06-18T10:56:37.094Z,72.30
2017-06-18T10:59:05.698Z,72.00
2017-06-18T11:01:34.026Z,70.90
2017-06-18T11:04:02.350Z,72.10
2017-06-18T11:06:31.602Z,70.20
2017-06-18T11:08:59.951Z,70.10
2017-06-18T11:11:28.734Z,70.60
2017-06-18T11:13:57.072Z,70.20
2017-06-18T11:16:25.890Z,70.40
2017-06-18T11:18:54.663Z,69.80
2017-06-18T11:21:22.995Z,70.30
2017-06-18T11:23:51.308Z,70.40
2017-06-18T11:26:19.627Z,70.80
2017-06-18T11:28:47.941Z,71.50
2017-06-18T11:31:16.472Z,71.20
2017-06-18T11:33:44.815Z,70.70
2017-06-18T11:36:13.943Z,66.90
2017-06-18T11:38:42.275Z,66.60
2017-06-18T11:41:10.798Z,66.50
2017-06-18T11:43:39.173Z,65.40
2017-06-18T11:46:08.297Z,64.60
2017-06-18T11:48:37.139Z,64.50
2017-06-18T11:51:06.243Z,64.50
2017-06-18T11:53:35.342Z,64.20
2017-06-18T11:56:03.673Z,64.10
2017-06-18T11:58:31.999Z,62.90
2017-06-18T12:01:01.096Z,63.20
2017-06-18T12:03:29.477Z,63.20
2017-06-18T12:05:58.789Z,65.00
2017-06-18T12:08:27.252Z,64.90
2017-06-18T12:10:56.340Z,66.00
2017-06-18T12:13:25.444Z,65.40
2017-06-18T12:15:53.930Z,65.20
2017-06-18T12:18:22.234Z,67.40
2017-06-18T12:20:50.555Z,67.80
2017-06-18T12:23:18.886Z,66.90
2017-06-18T12:25:47.192Z,66.20
2017-06-18T12:28:15.527Z,66.60
2017-06-18T12:30:43.895Z,66.80
2017-06-18T12:33:13.278Z,65.50
2017-06-18T12:35:41.557Z,65.30
2017-06-18T12:38:10.038Z,65.80
2017-06-18T12:40:38.403Z,65.20
2017-06-18T12:43:06.799Z,64.30
2017-06-18T12:45:35.182Z,64.70
2017-06-18T12:48:03.502Z,65.40
2017-06-18T12:50:31.799Z,65.30
2017-06-18T12:53:00.149Z,65.70
2017-06-18T12:55:28.591Z,66.10
2017-06-18T12:57:57.651Z,66.70
2017-06-18T13:00:26.874Z,66.50
2017-06-18T13:02:55.972Z,65.00
2017-06-18T13:05:24.354Z,64.90
2017-06-18T13:07:52.731Z,64.50
2017-06-18T13:10:21.114Z,65.50
2017-06-18T13:12:50.182Z,66.30
2017-06-18T13:15:19.395Z,67.10
2017-06-18T13:17:48.500Z,67.20
2017-06-18T13:20:16.844Z,67.10
2017-06-18T13:22:45.172Z,66.70
2017-06-18T13:25:13.625Z,66.70
2017-06-18T13:27:42.719Z,66.40
2017-06-18T13:30:11.079Z,66.20
2017-06-18T13:32:39.467Z,66.50
2017-06-18T13:35:07.801Z,65.00
2017-06-18T13:37:36.126Z,64.90
2017-06-18T13:40:04.473Z,64.20
2017-06-18T13:42:32.828Z,64.10
2017-06-18T13:45:01.159Z,64.00
2017-06-18T13:47:29.545Z,64.60
2017-06-18T13:50:31.711Z,64.90
2017-06-18T13:53:00.092Z,65.20
2017-06-18T13:55:28.463Z,63.90
2017-06-18T13:57:57.658Z,64.70
2017-06-18T14:00:26.047Z,65.20
2017-06-18T14:02:54.357Z,65.50
2017-06-18T14:05:22.710Z,64.90
2017-06-18T14:07:51.900Z,64.50
2017-06-18T14:10:20.266Z,64.40
2017-06-18T14:12:49.344Z,62.70
2017-06-18T14:15:17.739Z,62.60
2017-06-18T14:17:46.844Z,60.80
2017-06-18T14:20:15.160Z,60.70
2017-06-18T14:22:43.608Z,62.40
2017-06-18T14:25:12.692Z,63.70
2017-06-18T14:27:41.080Z,63.60
2017-06-18T14:30:09.431Z,64.20
2017-06-18T14:32:37.818Z,64.20
2017-06-18T14:35:06.927Z,62.20
2017-06-18T14:37:35.990Z,61.80
2017-06-18T14:40:05.123Z,62.40
2017-06-18T14:42:33.460Z,61.60
2017-06-18T14:45:01.756Z,60.70
2017-06-18T14:47:30.876Z,60.40
2017-06-18T14:49:59.235Z,60.30
2017-06-18T14:52:27.599Z,59.50
2017-06-18T14:54:56.707Z,58.70
2017-06-18T14:57:25.065Z,58.60
2017-06-18T14:59:53.463Z,58.20
2017-06-18T15:02:21.791Z,57.50
2017-06-18T15:04:50.216Z,56.80
2017-06-18T15:07:18.591Z,56.00
2017-06-18T15:09:46.978Z,54.90
2017-06-18T15:12:16.563Z,52.30
2017-06-18T15:14:44.894Z,52.30
2017-06-18T15:17:13.271Z,52.50
2017-06-18T15:19:41.579Z,51.20
2017-06-18T15:22:10.207Z,50.10
2017-06-18T15:24:38.578Z,48.70
2017-06-18T15:27:07.667Z,45.00
2017-06-18T15:29:35.986Z,44.90
2017-06-18T15:32:04.306Z,43.90
2017-06-18T15:34:33.524Z,45.50
2017-06-18T15:37:02.587Z,45.30
2017-06-18T15:39:31.719Z,45.60
2017-06-18T15:42:00.074Z,45.50
2017-06-18T15:44:28.414Z,46.00
2017-06-18T15:46:56.798Z,46.30
2017-06-18T15:49:25.139Z,45.80
2017-06-18T15:51:53.464Z,43.60
2017-06-18T15:54:21.748Z,41.20
2017-06-18T15:56:50.086Z,40.00
2017-06-18T15:59:18.532Z,40.10
2017-06-18T16:01:50.128Z,41.50
2017-06-18T16:04:19.293Z,41.70
2017-06-18T16:06:47.763Z,41.40
2017-06-18T16:09:16.843Z,41.10
2017-06-18T16:11:45.232Z,40.50
2017-06-18T16:14:13.558Z,39.60
2017-06-18T16:16:41.867Z,37.70
2017-06-18T16:21:40.383Z,34.40
2017-06-18T16:24:09.451Z,31.50
2017-06-18T16:26:38.174Z,31.40
2017-06-18T16:29:06.544Z,31.00
2017-06-18T16:31:34.924Z,29.80
2017-06-18T16:34:03.316Z,29.50
2017-06-18T16:36:31.611Z,28.70
2017-06-18T16:38:59.951Z,28.10
2017-06-18T16:41:29.064Z,27.90
2017-06-18T16:43:57.398Z,27.80
2017-06-18T16:46:26.526Z,27.30
2017-06-18T16:48:54.898Z,27.30
2017-06-18T16:51:23.272Z,27.20
2017-06-18T16:53:52.380Z,26.70
2017-06-18T16:56:21.031Z,26.60
2017-06-18T16:58:49.436Z,26.00
2017-06-18T17:01:17.808Z,26.40
2017-06-18T17:03:46.289Z,26.60
2017-06-18T17:06:14.684Z,26.20
2017-06-18T17:08:42.987Z,26.60
2017-06-18T17:11:11.287Z,26.80
2017-06-18T17:13:39.742Z,27.20
2017-06-18T17:16:08.051Z,27.30
2017-06-18T17:18:37.139Z,27.90
2017-06-18T17:21:11.155Z,28.10
2017-06-18T17:23:40.247Z,30.20
2017-06-18T17:26:08.581Z,29.60
2017-06-18T17:28:36.936Z,30.00
2017-06-18T17:31:05.280Z,29.90
2017-06-18T17:33:33.591Z,29.90
2017-06-18T17:36:02.783Z,29.90
2017-06-18T17:38:32.054Z,29.80
2017-06-18T17:41:00.402Z,29.50
2017-06-18T17:43:28.836Z,29.60
2017-06-18T17:45:57.907Z,29.10
2017-06-18T17:48:27.044Z,29.10
2017-06-18T17:50:55.411Z,29.10
2017-06-18T17:53:23.916Z,29.30
2017-06-18T17:55:52.210Z,29.20
2017-06-18T17:58:20.764Z,29.20
2017-06-18T18:00:49.091Z,29.70
2017-06-18T18:03:17.495Z,30.10
2017-06-18T18:05:46.592Z,32.70
2017-06-18T18:08:14.907Z,32.60
2017-06-18T18:10:43.354Z,33.90
2017-06-18T18:13:11.667Z,34.90
2017-06-18T18:15:40.009Z,36.20
2017-06-18T18:18:08.454Z,37.40
2017-06-18T18:20:36.793Z,38.60
2017-06-18T18:23:05.443Z,40.20
2017-06-18T18:25:33.823Z,41.90
2017-06-18T18:28:02.926Z,44.50
2017-06-18T18:30:31.996Z,45.80
2017-06-18T18:33:01.287Z,45.70
2017-06-18T18:35:29.657Z,47.10
2017-06-18T18:37:57.972Z,48.30
2017-06-18T18:40:26.368Z,49.30
2017-06-18T18:42:54.731Z,50.50
2017-06-18T18:45:23.083Z,51.20
2017-06-18T18:47:51.434Z,52.30
2017-06-18T18:50:19.716Z,53.40
2017-06-18T18:52:48.058Z,54.20
2017-06-18T18:55:16.390Z,55.10
2017-06-18T18:57:44.710Z,56.20
2017-06-18T19:00:13.038Z,56.80
2017-06-18T19:02:42.346Z,57.90
2017-06-18T19:05:11.431Z,58.70
2017-06-18T19:07:39.834Z,58.60
2017-06-18T19:10:08.182Z,59.50
2017-06-18T19:12:36.513Z,60.40
2017-06-18T19:15:04.969Z,61.90
2017-06-18T19:17:33.459Z,62.80
2017-06-18T19:20:02.521Z,64.70
2017-06-18T19:22:30.920Z,64.60
2017-06-18T19:25:00.000Z,67.20
2017-06-18T19:27:29.279Z,67.70
2017-06-18T19:29:57.660Z,67.70
2017-06-18T19:32:25.987Z,68.90
2017-06-18T19:34:54.351Z,70.10
2017-06-18T19:37:23.421Z,72.40
2017-06-18T19:39:51.790Z,72.30
2017-06-18T19:42:20.120Z,73.30
2017-06-18T19:44:48.666Z,75.20
2017-06-18T19:47:17.427Z,75.50
2017-06-18T19:49:45.760Z,76.10
2017-06-18T19:52:14.295Z,76.90
2017-06-18T19:54:42.603Z,77.30
2017-06-18T19:57:10.982Z,78.30
2017-06-18T19:59:39.309Z,78.90
2017-06-18T20:02:07.658Z,79.60
2017-06-18T20:04:35.976Z,79.90
2017-06-18T20:07:04.301Z,80.60
2017-06-18T20:09:32.662Z,81.20
2017-06-18T20:12:01.729Z,82.30
2017-06-18T20:14:30.357Z,82.30
2017-06-18T20:16:58.731Z,82.90
2017-06-18T20:19:27.821Z,83.70
2017-06-18T20:21:56.138Z,83.50
2017-06-18T20:24:24.512Z,84.10
2017-06-18T20:26:52.816Z,84.60
2017-06-18T20:29:21.142Z,84.90
2017-06-18T20:31:49.518Z,85.60
2017-06-18T20:34:17.872Z,86.10
2017-06-18T20:36:46.371Z,86.60
2017-06-18T20:39:14.682Z,86.70
2017-06-18T20:41:42.999Z,87.10
2017-06-18T20:44:11.710Z,88.30
2017-06-18T20:46:40.075Z,87.80
2017-06-18T20:49:08.451Z,88.00
2017-06-18T20:51:36.829Z,88.50
2017-06-18T20:54:05.162Z,88.70
2017-06-18T20:56:33.582Z,89.20
2017-06-18T20:59:02.435Z,89.50
2017-06-18T21:01:30.848Z,89.70
2017-06-18T21:03:59.987Z,90.30
2017-06-18T21:06:28.323Z,90.20
2017-06-18T21:08:56.706Z,90.30
2017-06-18T21:11:25.018Z,90.50
2017-06-18T21:13:53.354Z,90.70
2017-06-18T21:16:21.686Z,91.00
2017-06-18T21:18:50.102Z,91.20
2017-06-18T21:21:19.190Z,91.40
2017-06-18T21:23:47.486Z,91.40
2017-06-18T21:26:15.824Z,91.60
2017-06-18T21:28:44.136Z,91.60
2017-06-18T21:31:13.215Z,91.90
2017-06-18T21:33:41.490Z,91.80
2017-06-18T21:36:10.000Z,92.10
2017-06-18T21:38:39.086Z,92.50
2017-06-18T21:41:07.456Z,92.40
2017-06-18T21:43:35.838Z,92.50
2017-06-18T21:46:04.927Z,92.80
2017-06-18T21:48:34.015Z,93.00
2017-06-18T21:51:02.326Z,93.00
2017-06-18T21:53:30.642Z,93.20
2017-06-18T21:55:58.968Z,93.30
2017-06-18T21:58:27.318Z,93.40
2017-06-18T22:00:56.427Z,93.60
2017-06-18T22:03:24.738Z,93.60
2017-06-18T22:05:53.091Z,93.70
2017-06-18T22:08:22.190Z,94.00
2017-06-18T22:10:50.515Z,93.90
2017-06-18T22:13:18.876Z,94.00
2017-06-18T22:15:47.919Z,94.20
2017-06-18T22:18:16.300Z,94.30
2017-06-18T22:20:44.687Z,94.30
2017-06-18T22:23:13.016Z,94.40
2017-06-18T22:25:41.351Z,94.60
2017-06-18T22:28:09.706Z,94.60
2017-06-18T22:30:38.794Z,95.10
2017-06-18T22:33:08.002Z,95.20
2017-06-18T22:35:37.087Z,95.30
2017-06-18T22:38:05.441Z,95.30
2017-06-18T22:40:33.914Z,95.40
2017-06-18T22:43:02.236Z,95.50
2017-06-18T22:45:30.699Z,95.50
2017-06-18T22:47:59.772Z,95.60
2017-06-18T22:50:28.196Z,95.50
2017-06-18T22:52:57.976Z,96.20
2017-06-18T22:55:26.487Z,96.10
2017-06-18T22:57:54.834Z,96.30
2017-06-18T23:00:23.145Z,96.50
2017-06-18T23:02:51.520Z,96.50
2017-06-18T23:05:20.569Z,96.70
2017-06-18T23:07:48.899Z,96.70
2017-06-18T23:10:17.267Z,96.70
2017-06-18T23:12:45.640Z,96.90
2017-06-18T23:15:13.991Z,96.90
2017-06-18T23:17:42.297Z,97.00
2017-06-18T23:20:10.667Z,97.10
2017-06-18T23:22:39.761Z,97.30
2017-06-18T23:25:08.856Z,97.40
2017-06-18T23:27:38.053Z,97.50
2017-06-18T23:30:06.430Z,97.40
2017-06-18T23:32:35.536Z,97.50
2017-06-18T23:35:03.867Z,97.40
2017-06-18T23:37:32.199Z,97.50
2017-06-18T23:40:00.560Z,97.50
2017-06-18T23:42:29.036Z,97.50
2017-06-18T23:44:57.421Z,97.60
2017-06-18T23:47:26.479Z,97.60
2017-06-18T23:49:54.849Z,97.50
2017-06-18T23:52:23.172Z,97.60
2017-06-18T23:54:51.487Z,97.70
2017-06-18T23:57:19.928Z,97.80
2017-06-18T23:59:49.001Z,98.00
